Lulworth, United Kingdom
Current Conditions -  °F | °C
As of 7:50 AM on Thursday 29 Jan 2015 (Local Time) from EGHH Reporting Station
Scattered Clouds Scattered Clouds  
Wind Chill: 31°   Ceiling: Unl
Heat Index: 37°   Visibility: 6mi
Dew Point: 34°   Wind: 8mph
Humidity: 87%   Direction: 260°W
Pressure: 29.29"   Gusts: NA
Location:  50.62°N, 2.17°W
Report Text: EGHH 290750Z 26007KT 9999 SCT029 03/01 Q0992
Loading
Personal Weather Stations






























Interactive Weather Map New forecast layout! Learn more

10-Day Weather Forecast

Advertisements
Track Severe Weather on mobile